Home > Products > Valid Products > TAF

000
FTUS42 KKEY 291720
TAFEYW
TAF
KEYW 291720Z 2918/3018 03012G22KT P6SM SKC
     FM300300 06010KT P6SM SKC=



000
FTUS42 KKEY 291720
TAFEYW
TAF
KEYW 291720Z 2918/3018 03012G22KT P6SM SKC
     FM300300 06010KT P6SM SKC=



000
FTUS42 KKEY 291720
TAFMTH
TAF
KMTH 291720Z 2918/3018 03011G18KT P6SM SKC
     FM300300 06008KT P6SM SKC=



000
FTUS42 KKEY 291720
TAFEYW
TAF
KEYW 291720Z 2918/3018 03012G22KT P6SM SKC
     FM300300 06010KT P6SM SKC=



000
FTUS42 KKEY 291720
TAFMTH
TAF
KMTH 291720Z 2918/3018 03011G18KT P6SM SKC
     FM300300 06008KT P6SM SKC=



000
FTUS42 KKEY 291720
TAFEYW
TAF
KEYW 291720Z 2918/3018 03012G22KT P6SM SKC
     FM300300 06010KT P6SM SKC=



000
FTUS42 KKEY 291533 AAA
TAFEYW
TAF AMD
KEYW 291533Z 2916/3012 03011G20KT P6SM SKC
     FM300000 04010KT P6SM SKC=



000
FTUS42 KKEY 291533 AAA
TAFMTH
TAF AMD
KMTH 291533Z 2916/3012 03010G18KT P6SM SKC
     FM300000 04009KT P6SM SKC=



000
FTUS42 KKEY 291533 AAA
TAFEYW
TAF AMD
KEYW 291533Z 2916/3012 03011G20KT P6SM SKC
     FM300000 04010KT P6SM SKC=



000
FTUS42 KKEY 291148
TAFMTH
TAF
KMTH 291148Z 2912/3012 01008G14KT P6SM FEW250
     FM291600 04010G16KT P6SM SKC=



000
FTUS42 KKEY 291148
TAFEYW
TAF
KEYW 291148Z 2912/3012 01011G16KT P6SM FEW250
     FM291600 04012G18KT P6SM SKC=



000
FTUS42 KKEY 291148
TAFEYW
TAF
KEYW 291148Z 2912/3012 01011G16KT P6SM FEW250
     FM291600 04012G18KT P6SM SKC=



000
FTUS42 KKEY 291148
TAFEYW
TAF
KEYW 291148Z 2912/3012 01011G16KT P6SM FEW250
     FM291600 04012G18KT P6SM SKC=



000
FTUS42 KKEY 291148
TAFEYW
TAF
KEYW 291148Z 2912/3012 01011G16KT P6SM FEW250
     FM291600 04012G18KT P6SM SKC=



000
FTUS42 KKEY 291148
TAFMTH
TAF
KMTH 291148Z 2912/3012 01008G14KT P6SM FEW250
     FM291600 04010G16KT P6SM SKC=



000
FTUS42 KKEY 290845 AAA
TAFEYW
TAF AMD
KEYW 290845Z 2909/3006 01011G16KT P6SM SKC
     FM291500 04012G18KT P6SM SKC=



000
FTUS42 KKEY 290845 AAA
TAFEYW
TAF AMD
KEYW 290845Z 2909/3006 01011G16KT P6SM SKC
     FM291500 04012G18KT P6SM SKC=



000
FTUS42 KKEY 290845 AAA
TAFEYW
TAF AMD
KEYW 290845Z 2909/3006 01011G16KT P6SM SKC
     FM291500 04012G18KT P6SM SKC=



000
FTUS42 KKEY 290845 AAA
TAFEYW
TAF AMD
KEYW 290845Z 2909/3006 01011G16KT P6SM SKC
     FM291500 04012G18KT P6SM SKC=



000
FTUS42 KKEY 290520
TAFEYW
TAF
KEYW 290520Z 2906/3006 01011G18KT P6SM SKC
     FM291500 04012G18KT P6SM SKC=



000
FTUS42 KKEY 290520
TAFMTH
TAF
KMTH 290520Z 2906/3006 01008G14KT P6SM SKC
     FM291600 04010G16KT P6SM SKC=



000
FTUS42 KKEY 290520
TAFEYW
TAF
KEYW 290520Z 2906/3006 01011G18KT P6SM SKC
     FM291500 04012G18KT P6SM SKC=



000
FTUS42 KKEY 290520
TAFMTH
TAF
KMTH 290520Z 2906/3006 01008G14KT P6SM SKC
     FM291600 04010G16KT P6SM SKC=



000
FTUS42 KKEY 290520
TAFEYW
TAF
KEYW 290520Z 2906/3006 01011G18KT P6SM SKC
     FM291500 04012G18KT P6SM SKC=



000
FTUS42 KKEY 282330
TAFMTH
TAF
KMTH 282330Z 2900/2924 35011G18KT P6SM FEW030 BKN250
     FM291600 03011G18KT P6SM SKC=



000
FTUS42 KKEY 282330
TAFEYW
TAF
KEYW 282330Z 2900/2924 36011G18KT P6SM FEW030 BKN250
     FM291500 03011G18KT P6SM SKC=



000
FTUS42 KKEY 282330
TAFEYW
TAF
KEYW 282330Z 2900/2924 36011G18KT P6SM FEW030 BKN250
     FM291500 03011G18KT P6SM SKC=



000
FTUS42 KKEY 282330
TAFEYW
TAF
KEYW 282330Z 2900/2924 36011G18KT P6SM FEW030 BKN250
     FM291500 03011G18KT P6SM SKC=



000
FTUS42 KKEY 282330
TAFMTH
TAF
KMTH 282330Z 2900/2924 35011G18KT P6SM FEW030 BKN250
     FM291600 03011G18KT P6SM SKC=



000
FTUS42 KKEY 282330
TAFEYW
TAF
KEYW 282330Z 2900/2924 36011G18KT P6SM FEW030 BKN250
     FM291500 03011G18KT P6SM SKC=



000
FTUS42 KKEY 281734
TAFMTH
TAF
KMTH 281734Z 2818/2918 01011G18KT P6SM FEW035 BKN200
     FM282100 35011G18KT P6SM BKN250
     FM290600 03011G18KT P6SM SKC=



000
FTUS42 KKEY 281734
TAFEYW
TAF
KEYW 281734Z 2818/2918 01011G18KT P6SM SCT035 BKN200
     FM282100 35011G18KT P6SM SCT035 BKN250
     FM290600 03011G18KT P6SM SKC=



000
FTUS42 KKEY 281734
TAFEYW
TAF
KEYW 281734Z 2818/2918 01011G18KT P6SM SCT035 BKN200
     FM282100 35011G18KT P6SM SCT035 BKN250
     FM290600 03011G18KT P6SM SKC=



000
FTUS42 KKEY 281734
TAFEYW
TAF
KEYW 281734Z 2818/2918 01011G18KT P6SM SCT035 BKN200
     FM282100 35011G18KT P6SM SCT035 BKN250
     FM290600 03011G18KT P6SM SKC=



000
FTUS42 KKEY 281734
TAFMTH
TAF
KMTH 281734Z 2818/2918 01011G18KT P6SM FEW035 BKN200
     FM282100 35011G18KT P6SM BKN250
     FM290600 03011G18KT P6SM SKC=



000
FTUS42 KKEY 281734
TAFEYW
TAF
KEYW 281734Z 2818/2918 01011G18KT P6SM SCT035 BKN200
     FM282100 35011G18KT P6SM SCT035 BKN250
     FM290600 03011G18KT P6SM SKC=



000
FTUS42 KKEY 281504 AAA
TAFEYW
TAF AMD
KEYW 281504Z 2815/2912 36012G20KT P6SM SCT035 BKN250
     FM281800 36012G20KT P6SM BKN250
     FM290700 02011KT P6SM SKC=



000
FTUS42 KKEY 281504 AAA
TAFMTH
TAF AMD
KMTH 281504Z 2815/2912 01012G20KT P6SM FEW035 BKN250
     FM281800 34011G18KT P6SM BKN250
     FM290800 03010G15KT P6SM SKC=



000
FTUS42 KKEY 281504 AAA
TAFEYW
TAF AMD
KEYW 281504Z 2815/2912 36012G20KT P6SM SCT035 BKN250
     FM281800 36012G20KT P6SM BKN250
     FM290700 02011KT P6SM SKC=



000
FTUS42 KKEY 281138
TAFEYW
TAF
KEYW 281138Z 2812/2912 35015G24KT P6SM FEW025 BKN200
     FM281500 36013G21KT P6SM FEW035 BKN250
     FM281800 36012G20KT P6SM BKN250=



000
FTUS42 KKEY 281138
TAFMTH
TAF
KMTH 281138Z 2812/2912 01014G21KT P6SM FEW025 BKN200
     FM281500 36012G20KT P6SM FEW035 BKN250
     FM281800 36009KT P6SM BKN250=



000
FTUS42 KKEY 281138
TAFMTH
TAF
KMTH 281138Z 2812/2912 01014G21KT P6SM FEW025 BKN200
     FM281500 36012G20KT P6SM FEW035 BKN250
     FM281800 36009KT P6SM BKN250=



000
FTUS42 KKEY 281138
TAFEYW
TAF
KEYW 281138Z 2812/2912 35015G24KT P6SM FEW025 BKN200
     FM281500 36013G21KT P6SM FEW035 BKN250
     FM281800 36012G20KT P6SM BKN250=



000
FTUS42 KKEY 281138
TAFEYW
TAF
KEYW 281138Z 2812/2912 35015G24KT P6SM FEW025 BKN200
     FM281500 36013G21KT P6SM FEW035 BKN250
     FM281800 36012G20KT P6SM BKN250=



000
FTUS42 KKEY 281138
TAFEYW
TAF
KEYW 281138Z 2812/2912 35015G24KT P6SM FEW025 BKN200
     FM281500 36013G21KT P6SM FEW035 BKN250
     FM281800 36012G20KT P6SM BKN250=



000
FTUS42 KKEY 281006 AAB
TAFMTH
TAF AMD
KMTH 281006Z 2810/2906 35013G21KT P6SM FEW030 SCT035
     FM281500 36012G20KT P6SM FEW035
     FM281800 36009KT P6SM SKC=



000
FTUS42 KKEY 280916 AAA
TAFMTH
TAF AMD
KMTH 280916Z 2809/2906 32012G19KT P6SM SCT027 BKN035
     FM281200 35014G21KT P6SM FEW027 SCT035
     FM281500 36012G20KT P6SM FEW035
     FM281800 36009KT P6SM SKC=



000
FTUS42 KKEY 280916 AAA
TAFMTH
TAF AMD
KMTH 280916Z 2809/2906 32012G19KT P6SM SCT027 BKN035
     FM281200 35014G21KT P6SM FEW027 SCT035
     FM281500 36012G20KT P6SM FEW035
     FM281800 36009KT P6SM SKC=



000
FTUS42 KKEY 280915 AAA
TAFEYW
TAF AMD
KEYW 280915Z 2809/2906 34013G21KT P6SM SCT026 BKN250
     FM281200 35015G22KT P6SM FEW030 SCT250
     FM281500 36013G21KT P6SM FEW035
     FM281800 36011KT P6SM SKC=



000
FTUS42 KKEY 280915 AAA
TAFEYW
TAF AMD
KEYW 280915Z 2809/2906 34013G21KT P6SM SCT026 BKN250
     FM281200 35015G22KT P6SM FEW030 SCT250
     FM281500 36013G21KT P6SM FEW035
     FM281800 36011KT P6SM SKC=



000
FTUS42 KKEY 280915 AAA
TAFEYW
TAF AMD
KEYW 280915Z 2809/2906 34013G21KT P6SM SCT026 BKN250
     FM281200 35015G22KT P6SM FEW030 SCT250
     FM281500 36013G21KT P6SM FEW035
     FM281800 36011KT P6SM SKC=



000
FTUS42 KKEY 280915 AAA
TAFEYW
TAF AMD
KEYW 280915Z 2809/2906 34013G21KT P6SM SCT026 BKN250
     FM281200 35015G22KT P6SM FEW030 SCT250
     FM281500 36013G21KT P6SM FEW035
     FM281800 36011KT P6SM SKC=



000
FTUS42 KKEY 280521
TAFEYW
TAF
KEYW 280521Z 2806/2906 33013G21KT P6SM SCT025 BKN120
     FM281200 35015G22KT P6SM FEW030 SCT120
     FM281500 36013G21KT P6SM FEW035
     FM281800 36011KT P6SM SKC=



000
FTUS42 KKEY 280521
TAFMTH
TAF
KMTH 280521Z 2806/2906 30011G18KT P6SM SCT025 BKN120
     FM281200 35014G21KT P6SM FEW030 SCT120
     FM281500 36012G20KT P6SM FEW035
     FM281800 36009KT P6SM SKC=



000
FTUS42 KKEY 280521
TAFEYW
TAF
KEYW 280521Z 2806/2906 33013G21KT P6SM SCT025 BKN120
     FM281200 35015G22KT P6SM FEW030 SCT120
     FM281500 36013G21KT P6SM FEW035
     FM281800 36011KT P6SM SKC=



000
FTUS42 KKEY 280521
TAFEYW
TAF
KEYW 280521Z 2806/2906 33013G21KT P6SM SCT025 BKN120
     FM281200 35015G22KT P6SM FEW030 SCT120
     FM281500 36013G21KT P6SM FEW035
     FM281800 36011KT P6SM SKC=



000
FTUS42 KKEY 280521
TAFMTH
TAF
KMTH 280521Z 2806/2906 30011G18KT P6SM SCT025 BKN120
     FM281200 35014G21KT P6SM FEW030 SCT120
     FM281500 36012G20KT P6SM FEW035
     FM281800 36009KT P6SM SKC=



000
FTUS42 KKEY 280521
TAFEYW
TAF
KEYW 280521Z 2806/2906 33013G21KT P6SM SCT025 BKN120
     FM281200 35015G22KT P6SM FEW030 SCT120
     FM281500 36013G21KT P6SM FEW035
     FM281800 36011KT P6SM SKC=



000
FTUS42 KKEY 280417 AAC
TAFMTH
TAF AMD
KMTH 280417Z 2804/2824 25008G14KT P6SM -SHRA SCT020 BKN120
     FM280500 33014G23KT P6SM VCSH SCT020 BKN120
     FM280800 35013G22KT P6SM FEW025 SCT120
     FM281100 01013G21KT P6SM FEW030=



000
FTUS42 KKEY 280417 AAC
TAFMTH
TAF AMD
KMTH 280417Z 2804/2824 25008G14KT P6SM -SHRA SCT020 BKN120
     FM280500 33014G23KT P6SM VCSH SCT020 BKN120
     FM280800 35013G22KT P6SM FEW025 SCT120
     FM281100 01013G21KT P6SM FEW030=



000
FTUS42 KKEY 280416 AAC
TAFEYW
TAF AMD
KEYW 280416Z 2804/2824 32014G22KT P6SM SCT020 BKN120
     FM280800 35013G22KT P6SM FEW025 SCT120
     FM281100 01013G21KT P6SM FEW030=



000
FTUS42 KKEY 280416 AAC
TAFEYW
TAF AMD
KEYW 280416Z 2804/2824 32014G22KT P6SM SCT020 BKN120
     FM280800 35013G22KT P6SM FEW025 SCT120
     FM281100 01013G21KT P6SM FEW030=



000
FTUS42 KKEY 280416 AAC
TAFEYW
TAF AMD
KEYW 280416Z 2804/2824 32014G22KT P6SM SCT020 BKN120
     FM280800 35013G22KT P6SM FEW025 SCT120
     FM281100 01013G21KT P6SM FEW030=



000
FTUS42 KKEY 280255 AAB
TAFMTH
TAF AMD
KMTH 280255Z 2803/2824 29010G16KT P6SM FEW015 SCT030
     FM280500 33014G23KT P6SM SCT020 BKN050
     FM280800 35013G22KT P6SM FEW030
     FM281100 01013G21KT P6SM SCT035=



000
FTUS42 KKEY 280255 AAB
TAFEYW
TAF AMD
KEYW 280255Z 2803/2824 30016G25KT P6SM VCSH FEW015 SCT030
     FM280500 33015G24KT P6SM SCT020 BKN050
     FM280800 35013G22KT P6SM FEW030
     FM281100 01013G21KT P6SM SCT035=



000
FTUS42 KKEY 280255 AAB
TAFEYW
TAF AMD
KEYW 280255Z 2803/2824 30016G25KT P6SM VCSH FEW015 SCT030
     FM280500 33015G24KT P6SM SCT020 BKN050
     FM280800 35013G22KT P6SM FEW030
     FM281100 01013G21KT P6SM SCT035=



000
FTUS42 KKEY 280255 AAB
TAFEYW
TAF AMD
KEYW 280255Z 2803/2824 30016G25KT P6SM VCSH FEW015 SCT030
     FM280500 33015G24KT P6SM SCT020 BKN050
     FM280800 35013G22KT P6SM FEW030
     FM281100 01013G21KT P6SM SCT035=



000
FTUS42 KKEY 280255 AAB
TAFMTH
TAF AMD
KMTH 280255Z 2803/2824 29010G16KT P6SM FEW015 SCT030
     FM280500 33014G23KT P6SM SCT020 BKN050
     FM280800 35013G22KT P6SM FEW030
     FM281100 01013G21KT P6SM SCT035=



000
FTUS42 KKEY 280255 AAB
TAFEYW
TAF AMD
KEYW 280255Z 2803/2824 30016G25KT P6SM VCSH FEW015 SCT030
     FM280500 33015G24KT P6SM SCT020 BKN050
     FM280800 35013G22KT P6SM FEW030
     FM281100 01013G21KT P6SM SCT035=



000
FTUS42 KKEY 280037 AAA
TAFEYW
TAF AMD
KEYW 280037Z 2801/2824 28011G20KT 4SM TSRA SCT015CB BKN030 BKN090
      TEMPO 2801/2802 31015G30KT 2SM TSRA BKN015CB OVC030
     FM280500 33015G24KT P6SM SCT025 BKN050
     FM280800 35013G22KT P6SM FEW030
     FM281100 01013G21KT P6SM SCT035=



000
FTUS42 KKEY 280037 AAA
TAFEYW
TAF AMD
KEYW 280037Z 2801/2824 28011G20KT 4SM TSRA SCT015CB BKN030 BKN090
      TEMPO 2801/2802 31015G30KT 2SM TSRA BKN015CB OVC030
     FM280500 33015G24KT P6SM SCT025 BKN050
     FM280800 35013G22KT P6SM FEW030
     FM281100 01013G21KT P6SM SCT035=



000
FTUS42 KKEY 280015 AAA
TAFMTH
TAF AMD
KMTH 280015Z 2800/2824 28013G21KT P6SM VCTS SCT015CB BKN040 BKN090
      TEMPO 2800/2802 29015G25KT 3SM TSRA BKN015CB OVC022
     FM280500 33014G23KT P6SM SCT025 BKN050
     FM280800 35013G22KT P6SM FEW030
     FM281100 01013G21KT P6SM SCT035=



000
FTUS42 KKEY 272328
TAFMTH
TAF
KMTH 272328Z 2800/2824 28013G21KT P6SM VCTS SCT015CB BKN040 BKN090
      TEMPO 2801/2805 3SM SHRA BKN015
     FM280500 33014G23KT P6SM SCT025 BKN050
     FM280800 35013G22KT P6SM FEW030
     FM281100 01013G21KT P6SM SCT035=



000
FTUS42 KKEY 272328
TAFEYW
TAF
KEYW 272328Z 2800/2824 28011G20KT P6SM VCTS SCT015CB BKN040 BKN090
      TEMPO 2800/2804 3SM SHRA BKN015
     FM280500 33015G24KT P6SM SCT025 BKN050
     FM280800 35013G22KT P6SM FEW030
     FM281100 01013G21KT P6SM SCT035=



000
FTUS42 KKEY 272328
TAFEYW
TAF
KEYW 272328Z 2800/2824 28011G20KT P6SM VCTS SCT015CB BKN040 BKN090
      TEMPO 2800/2804 3SM SHRA BKN015
     FM280500 33015G24KT P6SM SCT025 BKN050
     FM280800 35013G22KT P6SM FEW030
     FM281100 01013G21KT P6SM SCT035=



000
FTUS42 KKEY 272328
TAFMTH
TAF
KMTH 272328Z 2800/2824 28013G21KT P6SM VCTS SCT015CB BKN040 BKN090
      TEMPO 2801/2805 3SM SHRA BKN015
     FM280500 33014G23KT P6SM SCT025 BKN050
     FM280800 35013G22KT P6SM FEW030
     FM281100 01013G21KT P6SM SCT035=



000
FTUS42 KKEY 272328
TAFEYW
TAF
KEYW 272328Z 2800/2824 28011G20KT P6SM VCTS SCT015CB BKN040 BKN090
      TEMPO 2800/2804 3SM SHRA BKN015
     FM280500 33015G24KT P6SM SCT025 BKN050
     FM280800 35013G22KT P6SM FEW030
     FM281100 01013G21KT P6SM SCT035=



000
FTUS42 KKEY 272328
TAFEYW
TAF
KEYW 272328Z 2800/2824 28011G20KT P6SM VCTS SCT015CB BKN040 BKN090
      TEMPO 2800/2804 3SM SHRA BKN015
     FM280500 33015G24KT P6SM SCT025 BKN050
     FM280800 35013G22KT P6SM FEW030
     FM281100 01013G21KT P6SM SCT035=



000
FTUS42 KKEY 272206 AAA
TAFEYW
TAF AMD
KEYW 272206Z 2722/2818 25012G20KT P6SM VCTS SCT015CB BKN250
     FM280000 26011G20KT P6SM VCSH SCT015 BKN050 BKN100
      TEMPO 2801/2805 3SM SHRA BKN015
     FM280500 33015G24KT P6SM SCT025 BKN050
     FM280800 35013G22KT P6SM FEW030
     FM281100 01013G21KT P6SM SCT035=



000
FTUS42 KKEY 272206 AAA
TAFEYW
TAF AMD
KEYW 272206Z 2722/2818 25012G20KT P6SM VCTS SCT015CB BKN250
     FM280000 26011G20KT P6SM VCSH SCT015 BKN050 BKN100
      TEMPO 2801/2805 3SM SHRA BKN015
     FM280500 33015G24KT P6SM SCT025 BKN050
     FM280800 35013G22KT P6SM FEW030
     FM281100 01013G21KT P6SM SCT035=



000
FTUS42 KKEY 272206 AAA
TAFEYW
TAF AMD
KEYW 272206Z 2722/2818 25012G20KT P6SM VCTS SCT015CB BKN250
     FM280000 26011G20KT P6SM VCSH SCT015 BKN050 BKN100
      TEMPO 2801/2805 3SM SHRA BKN015
     FM280500 33015G24KT P6SM SCT025 BKN050
     FM280800 35013G22KT P6SM FEW030
     FM281100 01013G21KT P6SM SCT035=



000
FTUS42 KKEY 272206 AAA
TAFEYW
TAF AMD
KEYW 272206Z 2722/2818 25012G20KT P6SM VCTS SCT015CB BKN250
     FM280000 26011G20KT P6SM VCSH SCT015 BKN050 BKN100
      TEMPO 2801/2805 3SM SHRA BKN015
     FM280500 33015G24KT P6SM SCT025 BKN050
     FM280800 35013G22KT P6SM FEW030
     FM281100 01013G21KT P6SM SCT035=



000
FTUS42 KKEY 271739
TAFEYW
TAF
KEYW 271739Z 2718/2818 24012G20KT P6SM SCT015 BKN250
     FM280000 28011G20KT P6SM VCSH SCT015 BKN050 BKN100
      TEMPO 2801/2805 3SM SHRA BKN015
     FM280500 33015G24KT P6SM SCT025 BKN050
     FM280800 35013G22KT P6SM FEW030
     FM281100 01013G21KT P6SM SCT035=



000
FTUS42 KKEY 271739
TAFEYW
TAF
KEYW 271739Z 2718/2818 24012G20KT P6SM SCT015 BKN250
     FM280000 28011G20KT P6SM VCSH SCT015 BKN050 BKN100
      TEMPO 2801/2805 3SM SHRA BKN015
     FM280500 33015G24KT P6SM SCT025 BKN050
     FM280800 35013G22KT P6SM FEW030
     FM281100 01013G21KT P6SM SCT035=



000
FTUS42 KKEY 271739
TAFMTH
TAF
KMTH 271739Z 2718/2818 23008G15KT P6SM SCT015 SCT050 BKN250
     FM280000 28013G21KT P6SM VCSH SCT015 BKN050 BKN100
      TEMPO 2801/2805 3SM SHRA BKN015
     FM280500 33014G23KT P6SM SCT025 BKN050
     FM280800 35013G22KT P6SM FEW030
     FM281100 01013G21KT P6SM SCT035=



000
FTUS42 KKEY 271739
TAFEYW
TAF
KEYW 271739Z 2718/2818 24012G20KT P6SM SCT015 BKN250
     FM280000 28011G20KT P6SM VCSH SCT015 BKN050 BKN100
      TEMPO 2801/2805 3SM SHRA BKN015
     FM280500 33015G24KT P6SM SCT025 BKN050
     FM280800 35013G22KT P6SM FEW030
     FM281100 01013G21KT P6SM SCT035=



000
FTUS42 KKEY 271739
TAFMTH
TAF
KMTH 271739Z 2718/2818 23008G15KT P6SM SCT015 SCT050 BKN250
     FM280000 28013G21KT P6SM VCSH SCT015 BKN050 BKN100
      TEMPO 2801/2805 3SM SHRA BKN015
     FM280500 33014G23KT P6SM SCT025 BKN050
     FM280800 35013G22KT P6SM FEW030
     FM281100 01013G21KT P6SM SCT035=



000
FTUS42 KKEY 271739
TAFEYW
TAF
KEYW 271739Z 2718/2818 24012G20KT P6SM SCT015 BKN250
     FM280000 28011G20KT P6SM VCSH SCT015 BKN050 BKN100
      TEMPO 2801/2805 3SM SHRA BKN015
     FM280500 33015G24KT P6SM SCT025 BKN050
     FM280800 35013G22KT P6SM FEW030
     FM281100 01013G21KT P6SM SCT035=



000
FTUS42 KKEY 271502 AAB
TAFMTH
TAF AMD
KMTH 271502Z 2715/2812 22008KT P6SM SCT020 SCT100
     FM271800 24012G20KT P6SM SCT020 SCT050 BKN100
     FM272200 28014G23KT P6SM VCSH SCT015 BKN050 BKN100
      TEMPO 2800/2804 3SM SHRA BKN015
     FM280400 33015G23KT P6SM SCT025 BKN050
     FM280800 35013G22KT P6SM FEW030=



000
FTUS42 KKEY 271502 AAA
TAFEYW
TAF AMD
KEYW 271502Z 2715/2812 25011KT P6SM SCT020 SCT100
     FM271800 24012G20KT P6SM SCT020 SCT050 BKN100
     FM272200 28014G23KT P6SM VCSH SCT015 BKN050 OVC100
      TEMPO 2800/2804 3SM SHRA BKN015
     FM280400 33015G23KT P6SM SCT025 BKN050
     FM280800 35013G22KT P6SM FEW030=



000
FTUS42 KKEY 271502 AAA
TAFEYW
TAF AMD
KEYW 271502Z 2715/2812 25011KT P6SM SCT020 SCT100
     FM271800 24012G20KT P6SM SCT020 SCT050 BKN100
     FM272200 28014G23KT P6SM VCSH SCT015 BKN050 OVC100
      TEMPO 2800/2804 3SM SHRA BKN015
     FM280400 33015G23KT P6SM SCT025 BKN050
     FM280800 35013G22KT P6SM FEW030=



000
FTUS42 KKEY 271311 AAA
TAFMTH
TAF AMD
KMTH 271311Z 2713/2812 22008KT P6SM SCT020 SCT100
      TEMPO 2713/2714 BKN020
     FM271800 24012G20KT P6SM SCT020 SCT050 BKN100
     FM272200 28014G23KT P6SM VCSH SCT015 BKN050 OVC100
      TEMPO 2722/2802 3SM SHRA BKN015
     FM280200 33015G23KT P6SM SCT025 BKN050
     FM280800 35013G22KT P6SM FEW030=



000
FTUS42 KKEY 271311 AAA
TAFMTH
TAF AMD
KMTH 271311Z 2713/2812 22008KT P6SM SCT020 SCT100
      TEMPO 2713/2714 BKN020
     FM271800 24012G20KT P6SM SCT020 SCT050 BKN100
     FM272200 28014G23KT P6SM VCSH SCT015 BKN050 OVC100
      TEMPO 2722/2802 3SM SHRA BKN015
     FM280200 33015G23KT P6SM SCT025 BKN050
     FM280800 35013G22KT P6SM FEW030=



000
FTUS42 KKEY 271142
TAFEYW
TAF
KEYW 271142Z 2712/2812 25011KT P6SM SCT020 SCT100
     FM271800 24012G20KT P6SM SCT020 SCT050 BKN100
     FM272200 28014G23KT P6SM VCSH SCT015 BKN050 OVC100
      TEMPO 2722/2802 3SM SHRA BKN015
     FM280200 33015G23KT P6SM SCT025 BKN050
     FM280800 35013G22KT P6SM FEW030=



000
FTUS42 KKEY 271142
TAFEYW
TAF
KEYW 271142Z 2712/2812 25011KT P6SM SCT020 SCT100
     FM271800 24012G20KT P6SM SCT020 SCT050 BKN100
     FM272200 28014G23KT P6SM VCSH SCT015 BKN050 OVC100
      TEMPO 2722/2802 3SM SHRA BKN015
     FM280200 33015G23KT P6SM SCT025 BKN050
     FM280800 35013G22KT P6SM FEW030=



000
FTUS42 KKEY 271142
TAFMTH
TAF
KMTH 271142Z 2712/2812 22008KT P6SM SCT020 SCT100
     FM271800 24012G20KT P6SM SCT020 SCT050 BKN100
     FM272200 28014G23KT P6SM VCSH SCT015 BKN050 OVC100
      TEMPO 2722/2802 3SM SHRA BKN015
     FM280200 33015G23KT P6SM SCT025 BKN050
     FM280800 35013G22KT P6SM FEW030=



000
FTUS42 KKEY 271142
TAFEYW
TAF
KEYW 271142Z 2712/2812 25011KT P6SM SCT020 SCT100
     FM271800 24012G20KT P6SM SCT020 SCT050 BKN100
     FM272200 28014G23KT P6SM VCSH SCT015 BKN050 OVC100
      TEMPO 2722/2802 3SM SHRA BKN015
     FM280200 33015G23KT P6SM SCT025 BKN050
     FM280800 35013G22KT P6SM FEW030=



000
FTUS42 KKEY 271142
TAFMTH
TAF
KMTH 271142Z 2712/2812 22008KT P6SM SCT020 SCT100
     FM271800 24012G20KT P6SM SCT020 SCT050 BKN100
     FM272200 28014G23KT P6SM VCSH SCT015 BKN050 OVC100
      TEMPO 2722/2802 3SM SHRA BKN015
     FM280200 33015G23KT P6SM SCT025 BKN050
     FM280800 35013G22KT P6SM FEW030=



000
FTUS42 KKEY 271142
TAFEYW
TAF
KEYW 271142Z 2712/2812 25011KT P6SM SCT020 SCT100
     FM271800 24012G20KT P6SM SCT020 SCT050 BKN100
     FM272200 28014G23KT P6SM VCSH SCT015 BKN050 OVC100
      TEMPO 2722/2802 3SM SHRA BKN015
     FM280200 33015G23KT P6SM SCT025 BKN050
     FM280800 35013G22KT P6SM FEW030=



000
FTUS42 KKEY 270902 AAA
TAFMTH
TAF AMD
KMTH 270902Z 2709/2806 22006KT P6SM FEW020 SCT100
     FM271200 23007KT P6SM SCT020 BKN100
     FM271800 24010G16KT P6SM SCT020 SCT060 OVC100
     FM272300 29011G20KT P6SM VCTS SCT020CB BKN060 OVC100 PROB30
      2723/2805 30015G28KT 2SM SHRA BKN020 OVC060=



000
FTUS42 KKEY 270901 AAA
TAFEYW
TAF AMD
KEYW 270901Z 2709/2806 22011KT P6SM FEW020 SCT100
     FM271200 23011KT P6SM SCT020 BKN100
     FM271800 24013G22KT P6SM SCT020 SCT060 OVC100
     FM272200 30014G23KT P6SM VCTS SCT020CB BKN060 OVC100 PROB30
      2722/2804 30020G30KT 2SM SHRA BKN020 OVC060=



000
FTUS42 KKEY 270901 AAA
TAFEYW
TAF AMD
KEYW 270901Z 2709/2806 22011KT P6SM FEW020 SCT100
     FM271200 23011KT P6SM SCT020 BKN100
     FM271800 24013G22KT P6SM SCT020 SCT060 OVC100
     FM272200 30014G23KT P6SM VCTS SCT020CB BKN060 OVC100 PROB30
      2722/2804 30020G30KT 2SM SHRA BKN020 OVC060=



000
FTUS42 KKEY 270524
TAFMTH
TAF
KMTH 270524Z 2706/2806 19007KT P6SM FEW020 BKN100
     FM271200 22007KT P6SM SCT020 BKN100
     FM271800 22010G16KT P6SM SCT020 SCT060 OVC100
     FM272300 29011G20KT P6SM VCTS SCT020CB BKN060 OVC100 PROB30
      2723/2805 30015G30KT 2SM +TSRA BKN020CB OVC060=



000
FTUS42 KKEY 270524
TAFEYW
TAF
KEYW 270524Z 2706/2806 18007KT P6SM FEW020 SCT100
     FM271200 20011KT P6SM SCT020 BKN100
     FM271800 23013G22KT P6SM SCT020 SCT060 OVC100
     FM272200 30014G23KT P6SM VCTS SCT020CB BKN060 OVC100 PROB30
      2722/2804 30020G35KT 2SM +TSRA BKN020CB OVC060=



000
FTUS42 KKEY 270524
TAFEYW
TAF
KEYW 270524Z 2706/2806 18007KT P6SM FEW020 SCT100
     FM271200 20011KT P6SM SCT020 BKN100
     FM271800 23013G22KT P6SM SCT020 SCT060 OVC100
     FM272200 30014G23KT P6SM VCTS SCT020CB BKN060 OVC100 PROB30
      2722/2804 30020G35KT 2SM +TSRA BKN020CB OVC060=



000
FTUS42 KKEY 270524
TAFEYW
TAF
KEYW 270524Z 2706/2806 18007KT P6SM FEW020 SCT100
     FM271200 20011KT P6SM SCT020 BKN100
     FM271800 23013G22KT P6SM SCT020 SCT060 OVC100
     FM272200 30014G23KT P6SM VCTS SCT020CB BKN060 OVC100 PROB30
      2722/2804 30020G35KT 2SM +TSRA BKN020CB OVC060=



000
FTUS42 KKEY 270524
TAFEYW
TAF
KEYW 270524Z 2706/2806 18007KT P6SM FEW020 SCT100
     FM271200 20011KT P6SM SCT020 BKN100
     FM271800 23013G22KT P6SM SCT020 SCT060 OVC100
     FM272200 30014G23KT P6SM VCTS SCT020CB BKN060 OVC100 PROB30
      2722/2804 30020G35KT 2SM +TSRA BKN020CB OVC060=



000
FTUS42 KKEY 270524
TAFMTH
TAF
KMTH 270524Z 2706/2806 19007KT P6SM FEW020 BKN100
     FM271200 22007KT P6SM SCT020 BKN100
     FM271800 22010G16KT P6SM SCT020 SCT060 OVC100
     FM272300 29011G20KT P6SM VCTS SCT020CB BKN060 OVC100 PROB30
      2723/2805 30015G30KT 2SM +TSRA BKN020CB OVC060=



000
FTUS42 KKEY 262330
TAFEYW
TAF
KEYW 262330Z 2700/2724 17007KT P6SM FEW020
     FM271300 20010KT P6SM FEW025
     FM271800 22012G18KT P6SM VCSH SCT020
     FM272200 26018G22KT P6SM VCTS SCT020CB BKN060=



000
FTUS42 KKEY 262330
TAFMTH
TAF
KMTH 262330Z 2700/2724 17006KT P6SM FEW020
     FM271400 20007KT P6SM FEW025
     FM271900 22014G20KT P6SM VCSH SCT020
     FM272300 26018G22KT P6SM VCTS SCT020CB BKN060=



000
FTUS42 KKEY 262330
TAFEYW
TAF
KEYW 262330Z 2700/2724 17007KT P6SM FEW020
     FM271300 20010KT P6SM FEW025
     FM271800 22012G18KT P6SM VCSH SCT020
     FM272200 26018G22KT P6SM VCTS SCT020CB BKN060=



    US Dept of Commerce
    National Oceanic and Atmospheric Administration
    National Weather Service
    1325 East West Highway
    Silver Spring, MD 20910
    Page Author: NWS Internet Services Team
Disclaimer
Information Quality
Credits
Glossary
Privacy Policy
Freedom of Information Act (FOIA)
About Us
Career Opportunities